首页
METAR-TAF:

METAR-TAF

机场 :

Benbecula, 苏格兰

纬度: 57-28N, 经度: 007-22W, 海拔: 6米

当前天气观测

该预报发布于39分钟前的10:20 UTC
风速6节,风向
温度 14°C
湿度 88%
气压 1019 hPa
能见度10公里或以上

METAR: EGPL 141020Z AUTO 36006KT 9999 OVC005/// 14/12 Q1019

时间: 11:59 (10:59 UTC)

预报

该预报发布于1小时和59分钟前的09:00 UTC
预报有效从14日的 09点(UTC)到 14日的 18点(UTC)
风速8节,风向
能见度10公里或以上
阴天层高于400英尺
成为
从 14日的 09点(UTC)到 14日的 12点(UTC)
多云层高于1000英尺
几率 40% :
短暂存在
从 14日的 12点(UTC)到 14日的 18点(UTC)
散云层高于1200英尺

TAF: EGPL 140900Z 1409/1418 35008KT 9999 OVC004 BECMG 1409/1412 BKN010 PROB40 TEMPO 1412/1418 SCT012

超过4000个机场的气象观测和天气预报(METAR&TAF报告)。

可查询的气象台以黄色和红色小点在地图上表示。

将鼠标移到小点上方,可查看气象台名称。

然后点击查看天气观测和预报。

如需切换地图:点击带黑十字的绿色按钮放大地图;点击带横线的绿色按钮缩小地图;或者点击绿色箭头查看邻近地区的地图。


METAR-TAF: